Skip Navigation Links
NOAA logo - Click to go to the NOAA homepage
NOAA's National Weather Service
Alaska Aviation Weather Unit
  NWS logo - Click to go to the NWS homepage
Left Navbar Graphic     23 AKDT = 07 GMT

   
NOAA is celebrating 200 years of science, service, and stewardship. Visit the NOAA 200th celebration Web site to learn more.
USA.gov is the U.S. Government's official Web portal to all Federal, state and local government Web resources and services.
Facebook
NWS on Facebook

Important Change Regarding the AAWU Web Presence

 

Over the last several months, the AAWU has been working to navigate its webpages to a nationally supported server. Security, as well as other needs, have necessitated the change.  In the process, we have made an effort to enhance the functionality of our website, as well as some of our products. As of June 20, 2017, aawu.arh.noaa.gov will be discontinued. The new AAWU web address is weather.gov/aawu. It is now live and will run in-parallel with the old site until it is discontinued. Please send any feedback or questions regarding the new webpages to nws.ar.aawu.webauthors@noaa.gov.  Thank you for your patience during this time of transition.
AAWU Home :: Display TAF Add Bookmark
TAF PAGS 240520Z 2406/2506 23010KT P6SM BKN035
     FM241000 VRB03KT P6SM BKN015
     FM241800 22007KT P6SM BKN025
      AMD LTD TO CLD VIS AND WIND=

METAR PAGS 240156Z AUTO 22011G21KT 10SM BKN041 11/06 A2997 RMK AO2 SLPNO T01060061= SPECI PAGS 240225Z AUTO 22008G18KT 10SM BKN027 OVC043 09/06 A2998 RMK AO2= SPECI PAGS 240253Z AUTO 23012G18KT 10SM OVC031 09/06 A2998 RMK AO2= METAR PAGS 240256Z AUTO 23011G18KT 10SM OVC031 09/06 A2998 RMK AO2 SLPNO T00940056 51014= METAR PAGS 240356Z AUTO 23012G17KT 10SM OVC039 09/06 A3000 RMK AO2 SLPNO T00940056= SPECI PAGS 240552Z AUTO 23010G15KT 10SM BKN027 BKN033 08/06 A3006 RMK AO2= METAR PAGS 240556Z AUTO 22011G15KT 10SM BKN025 BKN033 08/06 A3006 RMK AO2 SLPNO T00830056 10122 20078 51021= METAR PAGS 240656Z AUTO 21007KT 10SM OVC025 08/05 A3009 RMK AO2 SLPNO T00780050= SPECI PAGS 240736Z AUTO 22009KT 10SM SCT026 OVC032 08/05 A3012 RMK AO2=
 Alaska TAF Map

NOAA's National Weather Service
Alaska Aviation Weather Unit
6930 Sand Lake Road
Anchorage, AK 99502-1845
Disclaimer
Credits
Glossary
Privacy Policy
About Us
Career Opportunities
Contact AAWU Internet Services Site last modified: April, 17th 2012